Startpagina
METAR-TAF:

METAR-TAF

Vliegvelden :

Productieplatform

K13-a, Nederland

breedte: 53-13-04N, lengte: 3-13-13E, hoogte: 31 m

Actueel weer

Dit bericht is 36 minuten geleden gemaakt, om 23:25 UTC
Wind 5 kt uit het westzuidwesten
Temperatuur 19°C
Vochtigheid 64%
Druk 1015 hPa

METAR: EHJR 192325Z AUTO 24005KT //// // ///////// 19/12 Q1015 RE// W19/H5

Tijdstip: 02:01 (00:01 UTC)


TAF: ontbreekt

Waarnemingen en weersverwachtingen van meer dan 4000 vliegvelden (METAR en TAF).

De beschikbare stations zijn de gele en rode punten op de kaart.

Ga met uw muis naar het station om de naam te zien.

Klik dan om waarnemingen en weersverwachtingen te zien.

kaart wijzigen: klik op de groene knoppen met een zwart kruis om in te zoomen, op de groene knop met een streepje om uit te zoomen of op de groene pijlen voor aangrenzende kaarten.


METAR-TAF: